Time;durP1;ratioP1;P1;durP2;ratioP2;P2;SDS_P1;SDS_P2;PMS_P1;PMS_P2;Temp;Humidity;BMP_temperature;BMP_pressure;BME280_temperature;BME280_humidity;BME280_pressure;Samples;Min_cycle;Max_cycle;Signal;HPM_P1;HPM_P2
2022/06/28 00:00:36;;;;;;;1500.32;999.90;;;16.10;99.90;;;;;;5091987;28;20180;-66
2022/06/28 00:03:02;;;;;;;1532.47;999.90;;;16.10;99.90;;;;;;5086794;28;20196;-66
2022/06/28 00:05:28;;;;;;;1453.68;999.90;;;16.10;99.90;;;;;;5072649;28;20678;-66
2022/06/28 00:07:54;;;;;;;1422.97;999.90;;;16.20;99.90;;;;;;5080362;28;20200;-66
2022/06/28 00:10:20;;;;;;;1391.03;999.90;;;16.00;99.90;;;;;;5074398;28;20653;-66
2022/06/28 00:12:46;;;;;;;1379.68;999.90;;;15.90;99.90;;;;;;5061341;28;20195;-66
2022/06/28 00:17:58;;;;;;;1372.05;999.90;;;15.90;99.90;;;;;;5090095;28;20199;-66
2022/06/28 00:20:24;;;;;;;1361.30;999.90;;;15.90;99.90;;;;;;5083202;28;20529;-67
2022/06/28 00:22:50;;;;;;;1363.35;999.90;;;15.90;99.90;;;;;;5088605;28;20718;-67
2022/06/28 00:25:16;;;;;;;1361.97;999.90;;;15.90;99.90;;;;;;5081510;28;20287;-67
2022/06/28 00:27:42;;;;;;;1342.15;999.90;;;16.00;99.90;;;;;;5081183;28;20201;-67
2022/06/28 00:30:08;;;;;;;1337.30;999.90;;;16.00;99.90;;;;;;5091076;28;20549;-66
2022/06/28 00:32:34;;;;;;;1330.43;999.90;;;16.10;99.90;;;;;;5089256;28;20189;-66
2022/06/28 00:35:00;;;;;;;1347.97;999.90;;;16.20;99.90;;;;;;5073158;28;20176;-68
2022/06/28 00:37:30;;;;;;;1344.55;999.90;;;16.20;99.90;;;;;;5062590;28;20189;-66
2022/06/28 00:39:56;;;;;;;1340.47;999.90;;;16.30;99.90;;;;;;5073440;28;20536;-66
2022/06/28 00:42:22;;;;;;;1338.47;999.90;;;16.30;99.90;;;;;;5087688;28;20188;-66
2022/06/28 00:44:48;;;;;;;1327.78;999.90;;;16.20;99.90;;;;;;5076721;28;20237;-66
2022/06/28 00:47:15;;;;;;;1345.38;999.90;;;16.20;99.90;;;;;;5042989;28;20561;-66
2022/06/28 00:49:42;;;;;;;1326.63;999.90;;;16.20;99.90;;;;;;5072311;28;20185;-66
2022/06/28 00:52:09;;;;;;;1326.45;999.90;;;16.40;99.90;;;;;;5075870;28;20192;-66
2022/06/28 00:54:35;;;;;;;1329.00;999.90;;;16.40;99.90;;;;;;5088846;28;20181;-67
2022/06/28 00:57:00;;;;;;;1320.05;999.90;;;16.50;99.90;;;;;;5078090;28;20532;-66
2022/06/28 00:59:26;;;;;;;1325.18;999.90;;;16.40;99.90;;;;;;5094578;28;20559;-66
2022/06/28 01:01:52;;;;;;;1345.30;999.90;;;16.40;99.90;;;;;;5057846;28;20184;-67
2022/06/28 01:04:18;;;;;;;1339.78;999.90;;;16.50;99.90;;;;;;5095030;28;20701;-70
2022/06/28 01:06:44;;;;;;;1342.82;999.90;;;16.40;99.90;;;;;;5085134;28;20219;-67
2022/06/28 01:09:10;;;;;;;1351.85;999.90;;;16.30;99.90;;;;;;5089260;28;20177;-67
2022/06/28 01:11:36;;;;;;;1348.38;999.90;;;16.30;99.90;;;;;;5085182;28;20246;-66
2022/06/28 01:14:07;;;;;;;1353.30;999.90;;;16.20;99.90;;;;;;5091104;28;20272;-67
2022/06/28 01:16:34;;;;;;;1357.45;999.90;;;16.40;99.90;;;;;;5087385;28;20200;-68
2022/06/28 01:18:59;;;;;;;1334.35;999.90;;;16.30;99.90;;;;;;5088617;28;20191;-72
2022/06/28 01:21:30;;;;;;;1339.97;999.90;;;16.20;99.90;;;;;;5084402;28;20259;-67
2022/06/28 01:23:57;;;;;;;1342.00;999.90;;;16.20;99.90;;;;;;5092657;28;20524;-67
2022/06/28 01:26:23;;;;;;;1334.28;999.90;;;16.20;99.90;;;;;;5091386;28;20220;-66
2022/06/28 01:28:50;;;;;;;1330.72;999.90;;;16.10;99.90;;;;;;5085840;28;20188;-66
2022/06/28 01:31:21;;;;;;;1326.70;999.90;;;16.10;99.90;;;;;;5081461;28;20197;-67
2022/06/28 01:33:48;;;;;;;1325.07;999.90;;;16.00;99.90;;;;;;5075164;28;20203;-68
2022/06/28 01:36:14;;;;;;;1333.50;999.90;;;16.00;99.90;;;;;;5091953;28;20192;-67
2022/06/28 01:38:40;;;;;;;1337.53;999.90;;;15.80;99.90;;;;;;5094923;28;20195;-67
2022/06/28 01:41:07;;;;;;;1356.88;999.90;;;15.80;99.90;;;;;;5094808;28;20208;-67
2022/06/28 01:43:35;;;;;;;1369.60;999.90;;;15.70;99.90;;;;;;5093267;28;20196;-68
2022/06/28 01:46:05;;;;;;;1384.47;999.90;;;15.80;99.90;;;;;;5075813;28;20204;-67
2022/06/28 01:48:32;;;;;;;1387.75;999.90;;;15.80;99.90;;;;;;5084922;28;20633;-67
2022/06/28 01:50:58;;;;;;;1417.95;999.90;;;15.70;99.90;;;;;;5094120;28;20177;-67
2022/06/28 01:53:24;;;;;;;1440.72;999.90;;;15.70;99.90;;;;;;5085659;28;20185;-67
2022/06/28 01:55:50;;;;;;;1450.28;999.90;;;15.70;99.90;;;;;;5072816;28;20661;-67
2022/06/28 01:58:16;;;;;;;1513.30;999.90;;;15.80;99.90;;;;;;5086019;28;20260;-67
2022/06/28 02:00:42;;;;;;;1784.07;999.90;;;15.80;99.90;;;;;;5071497;28;20271;-66
2022/06/28 02:03:08;;;;;;;1769.18;999.90;;;15.80;99.90;;;;;;5059620;28;20557;-66
2022/06/28 02:05:35;;;;;;;1710.18;999.90;;;15.70;99.90;;;;;;5067661;28;20209;-66
2022/06/28 02:08:01;;;;;;;1704.15;999.90;;;15.60;99.90;;;;;;5076559;28;20296;-66
2022/06/28 02:10:27;;;;;;;1678.93;999.90;;;15.40;99.90;;;;;;5078585;28;20216;-66
2022/06/28 02:12:53;;;;;;;1699.38;999.90;;;15.40;99.90;;;;;;5085305;28;20178;-66
2022/06/28 02:15:19;;;;;;;1652.97;999.90;;;15.50;99.90;;;;;;5060427;28;20191;-66
2022/06/28 02:17:45;;;;;;;1657.57;999.90;;;15.40;99.90;;;;;;5089446;28;20263;-66
2022/06/28 02:20:12;;;;;;;1682.97;999.90;;;15.40;99.90;;;;;;5075526;28;20228;-67
2022/06/28 02:22:38;;;;;;;1702.10;999.90;;;15.40;99.90;;;;;;5065179;28;20226;-66
2022/06/28 02:25:05;;;;;;;1710.72;999.90;;;15.40;99.90;;;;;;5066415;28;20209;-67
2022/06/28 02:27:30;;;;;;;1746.13;999.90;;;15.30;99.90;;;;;;5077015;28;20192;-66
2022/06/28 02:29:56;;;;;;;1771.82;999.90;;;15.30;99.90;;;;;;5063010;28;20185;-69
2022/06/28 02:32:22;;;;;;;1767.22;999.90;;;15.20;99.90;;;;;;5060438;28;20264;-67
2022/06/28 02:40:22;;;;;;;1776.07;999.90;;;14.90;99.90;;;;;;5072529;28;20254;-67
2022/06/28 02:42:55;;;;;;;1758.15;999.90;;;14.90;99.90;;;;;;5088300;28;20192;-66
2022/06/28 02:45:23;;;;;;;1758.72;999.90;;;14.80;99.90;;;;;;5093568;28;20208;-66
2022/06/28 02:47:49;;;;;;;1781.38;999.90;;;14.80;99.90;;;;;;5093029;28;20246;-66
2022/06/28 02:50:14;;;;;;;1781.55;999.90;;;14.80;99.90;;;;;;5067397;28;20188;-68
2022/06/28 02:52:41;;;;;;;1813.57;999.90;;;14.70;99.90;;;;;;5076487;28;20185;-66
2022/06/28 02:55:07;;;;;;;1814.00;999.90;;;14.60;99.90;;;;;;5077480;28;20605;-66
2022/06/28 02:57:34;;;;;;;1855.18;999.90;;;14.60;99.90;;;;;;5074141;28;20517;-66
2022/06/28 03:00:02;;;;;;;1856.53;999.90;;;14.60;99.90;;;;;;5072755;28;20176;-66
2022/06/28 03:02:28;;;;;;;1867.60;999.90;;;14.50;99.90;;;;;;5077823;28;20225;-66
2022/06/28 03:04:54;;;;;;;1892.10;999.90;;;14.50;99.90;;;;;;5041428;28;20646;-66
2022/06/28 03:07:19;;;;;;;1868.78;999.90;;;14.40;99.90;;;;;;5079477;28;20197;-66
2022/06/28 03:09:45;;;;;;;1877.38;999.90;;;14.40;99.90;;;;;;5057902;28;20641;-66
2022/06/28 03:12:11;;;;;;;1902.75;999.90;;;14.30;99.90;;;;;;5074618;28;20646;-66
2022/06/28 03:14:37;;;;;;;1912.95;999.90;;;14.30;99.90;;;;;;5066318;28;20181;-66
2022/06/28 03:17:03;;;;;;;1909.50;999.90;;;14.30;99.90;;;;;;5065129;28;20615;-66
2022/06/28 03:19:29;;;;;;;1955.78;999.90;;;14.30;99.90;;;;;;5082404;28;21294;-69
2022/06/28 03:21:54;;;;;;;1952.55;999.90;;;14.30;99.90;;;;;;5082050;28;20184;-66
2022/06/28 03:24:20;;;;;;;1932.13;999.90;;;14.20;99.90;;;;;;5091353;28;20656;-66
2022/06/28 03:26:46;;;;;;;1969.50;999.90;;;14.30;99.90;;;;;;5077580;28;20209;-66
2022/06/28 03:29:12;;;;;;;1978.30;999.90;;;14.30;99.90;;;;;;5069542;28;20211;-66
2022/06/28 03:31:38;;;;;;;1990.82;999.90;;;14.30;99.90;;;;;;5080615;28;20534;-66
2022/06/28 03:34:03;;;;;;;1995.65;999.90;;;14.20;99.90;;;;;;5077128;28;20180;-66
2022/06/28 03:36:29;;;;;;;1967.40;999.90;;;14.10;99.90;;;;;;5074893;28;20556;-66
2022/06/28 03:38:55;;;;;;;1942.45;999.90;;;14.10;99.90;;;;;;5083645;28;20720;-66
2022/06/28 03:41:23;;;;;;;1979.65;999.90;;;14.10;99.90;;;;;;5086222;28;20220;-66
2022/06/28 03:43:50;;;;;;;1981.50;999.90;;;14.10;99.90;;;;;;5068629;28;20259;-66
2022/06/28 03:46:16;;;;;;;1973.55;999.90;;;14.10;99.90;;;;;;5075787;28;20197;-67
2022/06/28 03:48:43;;;;;;;1995.35;999.90;;;14.10;99.90;;;;;;5081356;28;20262;-66
2022/06/28 03:51:09;;;;;;;1988.10;999.90;;;14.10;99.90;;;;;;5068608;28;20177;-66
2022/06/28 03:53:35;;;;;;;1999.90;999.90;;;14.10;99.90;;;;;;5082414;28;20270;-66
2022/06/28 03:56:00;;;;;;;1995.22;999.90;;;14.10;99.90;;;;;;5091149;28;20529;-66
2022/06/28 03:58:26;;;;;;;1970.47;999.90;;;14.10;99.90;;;;;;5073895;28;20231;-67
2022/06/28 04:00:52;;;;;;;1990.43;999.90;;;14.20;99.90;;;;;;5054462;28;20189;-66
2022/06/28 04:03:18;;;;;;;1993.57;999.90;;;14.20;99.90;;;;;;5082028;28;20279;-67
2022/06/28 04:05:44;;;;;;;1974.68;999.90;;;14.20;99.90;;;;;;5071772;28;20296;-66
2022/06/28 04:08:10;;;;;;;1996.47;999.90;;;14.30;99.90;;;;;;5064800;28;20177;-66
2022/06/28 04:10:36;;;;;;;1994.63;999.90;;;14.40;99.90;;;;;;5078308;28;20281;-66
2022/06/28 04:13:01;;;;;;;1986.93;999.90;;;14.40;99.90;;;;;;5081671;28;20631;-66
2022/06/28 04:15:27;;;;;;;1980.75;999.90;;;14.50;99.90;;;;;;5067879;28;20185;-67
2022/06/28 04:17:53;;;;;;;1998.10;999.90;;;14.50;99.90;;;;;;5072989;28;20539;-66
2022/06/28 04:20:18;;;;;;;1994.07;999.90;;;14.50;99.90;;;;;;5058619;28;20234;-67
2022/06/28 04:22:44;;;;;;;1999.90;999.90;;;14.50;99.90;;;;;;5073400;28;20661;-66
2022/06/28 04:25:10;;;;;;;1997.30;999.90;;;14.60;99.90;;;;;;5070534;28;20180;-66
2022/06/28 04:27:36;;;;;;;1999.90;999.90;;;14.70;99.90;;;;;;5071053;28;20532;-67
2022/06/28 04:30:03;;;;;;;1999.90;999.90;;;14.80;99.90;;;;;;5081122;28;20230;-68
2022/06/28 04:32:29;;;;;;;1977.57;999.90;;;15.00;99.90;;;;;;5065664;28;20182;-68
2022/06/28 04:34:55;;;;;;;1949.97;999.90;;;15.10;99.90;;;;;;5057038;28;20353;-67
2022/06/28 04:37:21;;;;;;;1930.35;999.90;;;15.10;99.90;;;;;;5088609;28;20241;-66
2022/06/28 04:39:46;;;;;;;1929.22;999.90;;;15.20;99.90;;;;;;5085288;28;20634;-67
2022/06/28 04:42:12;;;;;;;1912.45;999.90;;;15.20;99.90;;;;;;5085197;28;20641;-66
2022/06/28 04:44:38;;;;;;;1901.65;999.90;;;15.20;99.90;;;;;;5086161;28;20224;-68
2022/06/28 04:47:05;;;;;;;1875.63;999.90;;;15.20;99.90;;;;;;5070812;28;20207;-67
2022/06/28 04:49:31;;;;;;;1868.07;999.90;;;15.20;99.90;;;;;;5077359;28;20656;-68
2022/06/28 04:51:56;;;;;;;1877.63;999.90;;;15.20;99.90;;;;;;5084458;28;20383;-68
2022/06/28 04:54:22;;;;;;;1854.05;999.90;;;15.30;99.90;;;;;;5089268;28;20181;-68
2022/06/28 04:56:47;;;;;;;1863.75;999.90;;;15.20;99.90;;;;;;5071924;28;20193;-68
2022/06/28 04:59:13;;;;;;;1831.28;999.90;;;15.30;99.90;;;;;;5041708;28;20187;-68
2022/06/28 05:01:39;;;;;;;1791.45;999.90;;;15.40;99.90;;;;;;5059974;28;20721;-68
2022/06/28 05:04:04;;;;;;;1817.22;999.90;;;15.50;99.90;;;;;;5055226;28;20380;-68
2022/06/28 05:06:30;;;;;;;1805.70;999.90;;;15.60;99.90;;;;;;5056803;28;20325;-68
2022/06/28 05:08:56;;;;;;;1818.85;999.90;;;15.60;99.90;;;;;;5075563;28;20276;-66
2022/06/28 05:11:22;;;;;;;1809.97;999.90;;;15.60;99.90;;;;;;5072837;28;20539;-67
2022/06/28 05:13:48;;;;;;;1764.13;999.90;;;15.70;99.90;;;;;;5086141;28;20185;-67
2022/06/28 05:16:14;;;;;;;1784.07;999.90;;;15.80;99.90;;;;;;5074771;28;20208;-72
2022/06/28 05:18:39;;;;;;;1784.25;999.90;;;15.80;99.90;;;;;;5077042;28;20602;-72
2022/06/28 05:21:05;;;;;;;1789.22;999.90;;;15.90;99.90;;;;;;5069957;28;20194;-68
2022/06/28 05:23:31;;;;;;;1756.55;999.90;;;15.90;99.90;;;;;;5081542;28;20235;-66
2022/06/28 05:25:57;;;;;;;1744.63;999.90;;;15.90;99.90;;;;;;5066659;28;20510;-69
2022/06/28 05:28:23;;;;;;;1715.28;999.90;;;15.90;99.90;;;;;;5072347;28;20195;-68
2022/06/28 05:30:49;;;;;;;1730.65;999.90;;;16.00;99.90;;;;;;5049663;28;20252;-68
2022/06/28 05:33:15;;;;;;;1718.50;999.90;;;16.10;99.90;;;;;;5073165;28;20230;-68
2022/06/28 05:35:40;;;;;;;1747.10;999.90;;;16.10;99.90;;;;;;5088381;28;20653;-68
2022/06/28 05:38:07;;;;;;;1726.57;999.90;;;16.30;99.90;;;;;;5062794;28;20549;-68
2022/06/28 05:40:33;;;;;;;1722.43;999.90;;;16.30;99.90;;;;;;5072679;28;20589;-68
2022/06/28 05:42:59;;;;;;;1683.20;999.90;;;16.30;99.90;;;;;;5091535;28;20185;-68
2022/06/28 05:45:25;;;;;;;1682.18;999.90;;;16.40;99.90;;;;;;5082963;28;20201;-68
2022/06/28 05:47:51;;;;;;;1646.45;999.90;;;16.60;99.90;;;;;;5086656;28;20215;-73
2022/06/28 05:50:19;;;;;;;1696.45;999.90;;;16.60;99.90;;;;;;5084463;28;20219;-68
2022/06/28 05:52:46;;;;;;;1638.97;999.90;;;16.60;99.90;;;;;;5079897;28;20188;-68
2022/06/28 05:55:12;;;;;;;1582.00;999.90;;;16.70;99.90;;;;;;5085619;28;20194;-68
2022/06/28 05:57:38;;;;;;;1615.00;999.90;;;16.80;99.90;;;;;;5070392;28;20192;-68
2022/06/28 06:00:05;;;;;;;1597.97;999.90;;;16.80;99.90;;;;;;5091337;28;20196;-68
2022/06/28 06:02:30;;;;;;;1591.72;999.90;;;16.80;99.90;;;;;;5089694;28;20199;-68
2022/06/28 06:04:57;;;;;;;1545.18;999.90;;;17.00;99.90;;;;;;5058563;28;20196;-68
2022/06/28 06:07:22;;;;;;;1495.10;999.90;;;17.00;99.90;;;;;;5044256;28;20209;-69
2022/06/28 06:09:48;;;;;;;1463.53;999.90;;;17.00;99.90;;;;;;5084881;28;20185;-68
2022/06/28 06:12:13;;;;;;;1447.28;999.90;;;16.90;99.90;;;;;;5070254;28;20176;-68
2022/06/28 06:14:39;;;;;;;1390.88;999.90;;;17.00;99.90;;;;;;5060098;28;20189;-68
2022/06/28 06:17:05;;;;;;;1380.43;999.90;;;17.20;99.90;;;;;;5078862;28;20243;-68
2022/06/28 06:19:30;;;;;;;1375.05;999.90;;;17.40;99.90;;;;;;5080592;28;20192;-68
2022/06/28 06:21:56;;;;;;;1366.55;999.90;;;17.40;99.90;;;;;;5066512;28;20567;-68
2022/06/28 06:24:22;;;;;;;1341.30;999.90;;;17.60;99.90;;;;;;5077099;28;20186;-68
2022/06/28 06:26:48;;;;;;;1334.45;999.90;;;17.60;99.90;;;;;;5082492;28;20212;-68
2022/06/28 06:29:13;;;;;;;1325.47;999.90;;;17.90;99.90;;;;;;5077411;28;20185;-68
2022/06/28 06:31:39;;;;;;;1316.68;999.90;;;18.00;99.90;;;;;;5055976;28;20189;-68
2022/06/28 06:34:06;;;;;;;1294.43;999.90;;;18.00;99.90;;;;;;5058445;28;20189;-68
2022/06/28 06:36:32;;;;;;;1283.40;999.90;;;18.00;99.90;;;;;;5094200;28;20226;-68
2022/06/28 06:38:58;;;;;;;1282.18;999.90;;;18.20;99.90;;;;;;5091119;28;20216;-68
2022/06/28 06:41:24;;;;;;;1265.47;999.90;;;18.40;99.90;;;;;;5080139;28;20193;-68
2022/06/28 06:43:49;;;;;;;1231.20;999.90;;;18.70;99.90;;;;;;5086413;28;20193;-68
2022/06/28 06:46:15;;;;;;;1091.53;999.90;;;19.80;99.90;;;;;;5058952;28;20220;-68
2022/06/28 06:48:41;;;;;;;974.90;910.92;;;22.00;99.90;;;;;;5066250;28;20195;-68
2022/06/28 06:51:07;;;;;;;939.92;879.50;;;24.50;99.90;;;;;;5060746;28;20656;-68
2022/06/28 06:53:32;;;;;;;578.28;550.72;;;26.80;99.90;;;;;;5094552;28;20259;-70
2022/06/28 06:55:58;;;;;;;339.33;325.38;;;29.00;99.90;;;;;;5085093;28;20184;-70
2022/06/28 06:58:24;;;;;;;127.57;122.40;;;30.10;99.90;;;;;;5084832;28;20264;-75
2022/06/28 07:00:49;;;;;;;79.60;76.22;;;30.60;99.90;;;;;;5069995;28;20188;-70
2022/06/28 07:03:15;;;;;;;140.00;134.00;;;30.80;99.90;;;;;;5092741;28;20200;-70
2022/06/28 07:05:41;;;;;;;251.48;239.80;;;31.40;99.90;;;;;;5068896;28;20216;-75
2022/06/28 07:08:07;;;;;;;271.48;259.40;;;31.70;99.90;;;;;;5087171;28;20257;-70
2022/06/28 07:10:32;;;;;;;294.42;281.00;;;32.00;99.90;;;;;;5067567;28;20180;-70
2022/06/28 07:12:58;;;;;;;429.83;409.20;;;32.40;99.90;;;;;;5081298;28;20184;-70
2022/06/28 07:15:24;;;;;;;500.20;475.65;;;33.30;99.90;;;;;;5092178;28;20180;-70
2022/06/28 07:17:50;;;;;;;692.72;652.75;;;33.90;99.90;;;;;;5087292;28;20278;-69
2022/06/28 07:20:15;;;;;;;731.15;688.75;;;33.80;99.90;;;;;;5074370;28;20192;-69
2022/06/28 07:22:41;;;;;;;732.83;690.03;;;33.10;99.90;;;;;;5092014;28;20202;-70
2022/06/28 07:25:07;;;;;;;787.80;739.67;;;32.80;99.90;;;;;;5078717;28;20188;-70
2022/06/28 07:27:32;;;;;;;769.83;723.15;;;33.50;99.90;;;;;;5087987;28;20212;-70
2022/06/28 07:29:58;;;;;;;787.75;739.10;;;34.20;99.90;;;;;;5071485;28;20227;-70
2022/06/28 07:32:24;;;;;;;813.20;762.10;;;34.90;99.50;;;;;;5087818;28;20188;-69
2022/06/28 07:34:49;;;;;;;792.38;743.10;;;35.40;98.10;;;;;;5065987;28;20188;-70
2022/06/28 07:37:15;;;;;;;804.25;753.92;;;35.80;97.40;;;;;;5080492;28;20200;-70
2022/06/28 07:39:41;;;;;;;839.33;785.17;;;36.30;96.90;;;;;;5082279;28;20301;-69
2022/06/28 07:42:07;;;;;;;894.38;835.45;;;35.70;96.70;;;;;;5075081;28;20237;-69
2022/06/28 07:44:33;;;;;;;941.53;878.10;;;35.40;95.40;;;;;;5086401;28;20192;-69
2022/06/28 07:46:58;;;;;;;962.30;896.75;;;35.10;95.60;;;;;;5077874;28;20208;-69
2022/06/28 07:52:33;;;;;;;981.85;913.60;;;34.90;95.60;;;;;;5068664;28;20655;-70
2022/06/28 07:54:54;;;;;;;998.05;928.42;;;35.70;95.20;;;;;;5076113;28;20194;-69
2022/06/28 07:57:19;;;;;;;1031.50;958.55;;;35.10;93.50;;;;;;5074540;28;20192;-69
2022/06/28 07:59:45;;;;;;;1063.03;986.58;;;34.00;94.80;;;;;;5079168;28;20191;-69
2022/06/28 08:02:11;;;;;;;1077.65;999.25;;;33.50;94.80;;;;;;5081204;28;20185;-69
2022/06/28 08:04:36;;;;;;;1074.97;996.35;;;33.10;94.10;;;;;;5072363;28;20199;-69
2022/06/28 08:07:02;;;;;;;1077.78;998.63;;;33.00;95.00;;;;;;5063321;28;20239;-69
2022/06/28 08:09:28;;;;;;;1077.95;999.47;;;33.20;95.20;;;;;;5072075;28;20714;-70
2022/06/28 08:11:53;;;;;;;1081.68;999.90;;;33.30;95.60;;;;;;5071421;28;20625;-70
2022/06/28 08:14:19;;;;;;;1101.18;999.90;;;32.60;95.00;;;;;;5072395;28;20188;-69
2022/06/28 08:16:45;;;;;;;1101.47;999.90;;;32.70;94.70;;;;;;5074283;28;20188;-69
2022/06/28 08:19:10;;;;;;;1113.72;999.90;;;32.20;94.80;;;;;;5075988;28;20192;-69
2022/06/28 08:21:38;;;;;;;1100.78;999.90;;;32.10;96.30;;;;;;5080054;28;20180;-70
2022/06/28 08:24:04;;;;;;;1089.28;999.90;;;32.80;95.70;;;;;;5063856;28;20176;-70
2022/06/28 08:26:30;;;;;;;1090.25;999.90;;;33.50;95.20;;;;;;5081071;28;20211;-70
2022/06/28 08:28:55;;;;;;;1071.10;993.85;;;33.90;95.10;;;;;;5075363;28;20276;-70
2022/06/28 08:31:21;;;;;;;1071.10;993.28;;;33.50;95.50;;;;;;5057260;28;20195;-69
2022/06/28 08:33:47;;;;;;;1102.90;999.90;;;34.10;95.20;;;;;;5059313;28;20195;-69
2022/06/28 08:36:12;;;;;;;1087.13;999.90;;;34.10;94.00;;;;;;5079800;28;20560;-69
2022/06/28 08:38:38;;;;;;;1077.35;998.58;;;33.30;95.40;;;;;;5080227;28;20294;-70
2022/06/28 08:41:05;;;;;;;1074.72;996.38;;;33.60;95.50;;;;;;5077276;28;20541;-70
2022/06/28 08:43:32;;;;;;;1059.30;982.25;;;34.50;94.80;;;;;;5080579;28;20181;-70
2022/06/28 08:45:58;;;;;;;1044.90;970.35;;;35.00;94.60;;;;;;5066705;28;20208;-70
2022/06/28 08:48:31;;;;;;;1038.65;964.47;;;35.10;94.20;;;;;;5054220;28;20299;-74
2022/06/28 08:50:59;;;;;;;1047.43;972.28;;;35.40;94.00;;;;;;5082047;28;20180;-70
2022/06/28 08:53:26;;;;;;;1057.82;981.13;;;35.10;93.00;;;;;;5063610;28;20371;-70
2022/06/28 08:55:52;;;;;;;1073.03;994.60;;;34.50;93.70;;;;;;5077285;28;20188;-70
2022/06/28 08:58:18;;;;;;;1068.30;990.45;;;33.40;94.50;;;;;;5067808;28;20246;-69
2022/06/28 09:00:43;;;;;;;1086.57;999.90;;;33.00;94.60;;;;;;5088342;28;20203;-69
2022/06/28 09:03:12;;;;;;;1087.22;999.90;;;32.20;94.80;;;;;;5091474;28;20184;-70
2022/06/28 09:05:38;;;;;;;1096.20;999.90;;;31.90;95.70;;;;;;5085505;28;20288;-70
2022/06/28 09:08:07;;;;;;;1107.68;999.90;;;32.50;94.60;;;;;;5073179;28;20296;-70
2022/06/28 09:10:32;;;;;;;1088.43;999.90;;;32.90;95.10;;;;;;5072817;28;20184;-71
2022/06/28 09:13:06;;;;;;;1108.38;999.90;;;33.60;96.20;;;;;;5075450;28;20698;-70
2022/06/28 09:15:54;;;;;;;1109.30;999.90;;;32.90;94.30;;;;;;5077279;28;20180;-71
2022/06/28 09:18:22;;;;;;;1122.05;999.90;;;31.90;94.80;;;;;;5089549;28;20175;-71
2022/06/28 09:20:56;;;;;;;1118.28;999.90;;;31.20;95.90;;;;;;5072350;28;20180;-70
2022/06/28 09:23:23;;;;;;;1117.57;999.90;;;31.90;96.50;;;;;;5087479;28;20184;-70
2022/06/28 09:25:48;;;;;;;1120.20;999.90;;;31.80;95.50;;;;;;5087505;28;20208;-70
2022/06/28 09:28:32;;;;;;;1128.78;999.90;;;32.30;95.40;;;;;;5086382;28;20196;-70
2022/06/28 09:31:25;;;;;;;1125.72;999.90;;;33.00;95.00;;;;;;5088011;28;20176;-70
2022/06/28 09:34:03;;;;;;;1113.72;999.90;;;32.60;95.10;;;;;;5088967;28;20539;-70
2022/06/28 09:36:41;;;;;;;1116.22;999.90;;;33.10;95.20;;;;;;5075830;28;20188;-70
2022/06/28 09:39:15;;;;;;;1122.25;999.90;;;32.80;95.00;;;;;;5078975;28;20208;-70
2022/06/28 09:41:54;;;;;;;1146.90;999.90;;;30.90;95.10;;;;;;5070954;28;20238;-70
2022/06/28 09:44:28;;;;;;;1143.88;999.90;;;29.50;97.80;;;;;;5052387;28;20176;-70
2022/06/28 09:46:57;;;;;;;1144.45;999.90;;;28.80;97.50;;;;;;5085271;28;20744;-70
2022/06/28 09:49:32;;;;;;;1142.50;999.90;;;28.20;97.50;;;;;;5085017;28;20184;-69
2022/06/28 09:51:59;;;;;;;1168.03;999.90;;;27.50;98.20;;;;;;5093084;28;20171;-69
2022/06/28 09:54:27;;;;;;;1138.47;999.90;;;26.90;98.70;;;;;;5073550;28;20188;-71
2022/06/28 09:56:55;;;;;;;1128.18;999.90;;;26.60;99.90;;;;;;5083389;28;20274;-67
2022/06/28 09:59:23;;;;;;;1121.57;999.90;;;26.40;99.90;;;;;;5088084;28;20181;-67
2022/06/28 10:01:49;;;;;;;1117.38;999.90;;;26.10;99.90;;;;;;5082526;28;20227;-67
2022/06/28 10:04:16;;;;;;;1103.55;999.90;;;26.00;99.90;;;;;;5086049;28;20189;-73
2022/06/28 10:06:42;;;;;;;1094.88;999.90;;;25.90;99.90;;;;;;5077533;28;20345;-74
2022/06/28 10:09:08;;;;;;;1083.53;999.90;;;25.70;99.90;;;;;;5057892;28;20272;-70
2022/06/28 10:17:36;;;;;;;1035.50;964.83;;;25.10;99.90;;;;;;5082008;28;20199;-69
2022/06/28 10:20:07;;;;;;;1001.25;934.05;;;24.90;99.90;;;;;;5085134;28;20173;-69
2022/06/28 10:22:33;;;;;;;983.95;917.67;;;25.10;99.90;;;;;;5074531;28;20169;-74
2022/06/28 10:25:01;;;;;;;926.30;867.03;;;25.30;99.90;;;;;;5061283;28;20649;-69
2022/06/28 10:27:28;;;;;;;885.70;829.78;;;25.40;99.90;;;;;;5073461;28;20209;-73
2022/06/28 10:30:00;;;;;;;884.20;828.47;;;25.40;99.90;;;;;;5080271;28;20193;-69
2022/06/28 10:32:39;;;;;;;783.05;737.05;;;25.20;99.90;;;;;;5073955;28;20229;-70
2022/06/28 10:35:05;;;;;;;751.47;708.00;;;25.40;99.90;;;;;;5093491;28;20219;-69
2022/06/28 10:37:30;;;;;;;639.25;604.55;;;25.70;99.90;;;;;;5058960;28;20532;-69
2022/06/28 10:40:24;;;;;;;689.17;651.13;;;25.80;99.90;;;;;;5083397;28;20189;-70
2022/06/28 10:42:51;;;;;;;695.05;656.33;;;25.30;99.90;;;;;;5078869;28;20199;-69
2022/06/28 10:45:20;;;;;;;676.85;639.60;;;25.10;99.90;;;;;;5082287;28;20243;-69
2022/06/28 10:48:09;;;;;;;722.53;681.13;;;25.50;99.90;;;;;;5072438;28;20561;-69
2022/06/28 10:51:03;;;;;;;646.45;612.08;;;25.20;99.90;;;;;;5080160;28;20198;-69
2022/06/28 10:53:33;;;;;;;731.20;689.75;;;25.30;99.90;;;;;;5088606;28;20196;-69
2022/06/28 10:56:10;;;;;;;733.72;692.22;;;24.70;99.90;;;;;;5077227;28;20193;-70
2022/06/28 10:59:06;;;;;;;756.17;712.70;;;24.50;99.90;;;;;;5085536;28;20649;-69
2022/06/28 11:01:42;;;;;;;721.55;680.20;;;24.60;99.90;;;;;;5072149;28;20671;-70
2022/06/28 11:04:11;;;;;;;721.38;677.40;;;24.90;99.90;;;;;;5069772;28;20200;-70
2022/06/28 11:06:41;;;;;;;704.35;665.28;;;24.70;99.90;;;;;;5084603;28;20204;-70
2022/06/28 11:09:28;;;;;;;686.35;648.97;;;24.50;99.90;;;;;;5087457;28;20527;-76
2022/06/28 11:12:17;;;;;;;681.13;643.22;;;24.60;99.90;;;;;;5077451;28;20177;-70
2022/06/28 11:14:46;;;;;;;566.08;537.38;;;24.60;99.90;;;;;;5089828;28;20607;-69
2022/06/28 11:17:25;;;;;;;588.17;557.33;;;25.00;99.90;;;;;;5085751;28;20219;-71
2022/06/28 11:20:12;;;;;;;620.83;587.80;;;24.90;99.90;;;;;;5086066;28;20202;-69
2022/06/28 11:22:43;;;;;;;701.30;661.45;;;25.10;99.90;;;;;;5075384;28;20263;-69
2022/06/28 11:25:14;;;;;;;604.63;573.03;;;24.90;99.90;;;;;;5071182;28;20634;-69
2022/06/28 11:27:53;;;;;;;586.05;555.63;;;25.10;99.90;;;;;;5073269;28;20201;-70
2022/06/28 11:30:28;;;;;;;517.63;491.48;;;25.30;99.90;;;;;;5068980;28;20585;-69
2022/06/28 11:32:59;;;;;;;554.88;526.63;;;25.50;99.90;;;;;;5075750;28;20268;-68
2022/06/28 11:35:30;;;;;;;520.58;494.20;;;25.50;99.90;;;;;;5078627;28;20243;-70
2022/06/28 11:38:03;;;;;;;617.60;585.20;;;25.70;99.90;;;;;;5077341;28;20185;-69
2022/06/28 11:40:49;;;;;;;652.33;616.85;;;25.30;99.90;;;;;;5079446;28;20529;-75
2022/06/28 11:43:18;;;;;;;641.30;607.25;;;25.40;99.90;;;;;;5059170;28;20606;-69
2022/06/28 11:45:50;;;;;;;666.40;630.65;;;25.90;99.90;;;;;;5084660;28;20211;-69
2022/06/28 11:48:21;;;;;;;706.85;667.50;;;26.00;99.90;;;;;;5082160;28;20193;-69
2022/06/28 11:50:51;;;;;;;636.40;602.80;;;25.90;99.90;;;;;;5075836;28;20188;-69
2022/06/28 11:53:18;;;;;;;615.10;583.40;;;26.20;99.90;;;;;;5079470;28;20260;-69
2022/06/28 11:55:46;;;;;;;565.03;536.20;;;26.40;99.90;;;;;;5068062;28;20212;-69
2022/06/28 11:58:33;;;;;;;585.70;555.47;;;26.50;99.90;;;;;;5067135;28;20543;-68
2022/06/28 12:01:11;;;;;;;634.22;600.33;;;26.60;99.90;;;;;;5087891;28;20208;-69
2022/06/28 12:03:43;;;;;;;751.25;707.92;;;26.70;99.90;;;;;;5077549;28;20204;-69
2022/06/28 12:06:20;;;;;;;741.28;699.33;;;26.80;99.90;;;;;;5085873;28;20295;-69
2022/06/28 12:08:54;;;;;;;771.28;726.40;;;26.60;99.90;;;;;;5062967;28;20572;-69
2022/06/28 12:11:32;;;;;;;768.95;724.60;;;26.70;99.90;;;;;;5088514;28;20697;-69
2022/06/28 12:14:04;;;;;;;773.22;728.03;;;26.60;99.90;;;;;;5073066;28;20197;-69
2022/06/28 12:16:32;;;;;;;689.45;651.50;;;26.30;99.90;;;;;;5070398;28;20552;-69
2022/06/28 12:18:59;;;;;;;673.22;636.42;;;26.50;99.90;;;;;;5068084;28;20187;-69
2022/06/28 12:21:25;;;;;;;672.95;636.08;;;26.40;99.90;;;;;;5090106;28;20196;-69